Time;durP1;ratioP1;P1;durP2;ratioP2;P2;SDS_P1;SDS_P2;PMS_P1;PMS_P2;Temp;Humidity;BMP_temperature;BMP_pressure;BME280_temperature;BME280_humidity;BME280_pressure;Samples;Min_cycle;Max_cycle;Signal;HPM_P1;HPM_P2
2023/12/11 00:01:20;;;;;;;39.17;8.20;;;8.20;85.70;;;;;;5023128;28;20103;-75
2023/12/11 00:03:45;;;;;;;52.53;13.57;;;8.10;85.70;;;;;;5017452;28;20068;-73
2023/12/11 00:06:11;;;;;;;53.17;8.27;;;8.10;85.60;;;;;;5026186;28;20444;-74
2023/12/11 00:08:37;;;;;;;39.93;7.53;;;8.10;85.60;;;;;;5025436;28;20053;-75
2023/12/11 00:11:03;;;;;;;48.93;8.50;;;8.10;85.70;;;;;;5033878;28;20060;-74
2023/12/11 00:13:29;;;;;;;49.53;9.37;;;8.00;85.70;;;;;;5031864;28;20062;-74
2023/12/11 00:15:55;;;;;;;51.50;10.50;;;8.00;85.70;;;;;;5012092;28;20057;-74
2023/12/11 00:18:20;;;;;;;48.10;9.10;;;8.00;85.80;;;;;;5018742;28;20448;-74
2023/12/11 00:20:46;;;;;;;50.77;9.73;;;8.00;85.80;;;;;;5031743;28;20071;-73
2023/12/11 00:23:12;;;;;;;44.00;10.13;;;7.90;85.80;;;;;;5027690;28;20049;-75
2023/12/11 00:25:47;;;;;;;55.03;9.53;;;8.00;85.70;;;;;;5026653;28;20104;-74
2023/12/11 00:28:13;;;;;;;54.00;9.97;;;8.00;85.80;;;;;;5038872;28;20049;-74
2023/12/11 00:30:39;;;;;;;47.10;10.33;;;8.00;85.60;;;;;;5045401;28;20382;-74
2023/12/11 00:33:04;;;;;;;52.57;11.87;;;8.00;85.50;;;;;;5044935;28;20098;-75
2023/12/11 00:35:30;;;;;;;54.07;17.17;;;8.00;85.50;;;;;;5045715;28;20143;-75
2023/12/11 00:37:56;;;;;;;56.53;11.10;;;8.00;85.40;;;;;;5029244;28;20429;-74
2023/12/11 00:40:21;;;;;;;48.83;10.27;;;8.00;85.30;;;;;;5029108;28;20050;-74
2023/12/11 00:42:47;;;;;;;58.83;10.47;;;8.00;85.40;;;;;;5039295;28;20075;-75
2023/12/11 00:45:15;;;;;;;59.93;11.33;;;8.10;85.40;;;;;;5045923;28;20124;-74
2023/12/11 00:47:41;;;;;;;62.60;11.20;;;8.10;85.30;;;;;;5053392;28;20176;-75
2023/12/11 00:50:07;;;;;;;53.23;11.13;;;8.10;85.30;;;;;;5046406;28;21023;-74
2023/12/11 00:52:33;;;;;;;54.87;10.87;;;8.10;85.30;;;;;;5044374;28;20143;-75
2023/12/11 00:54:59;;;;;;;58.47;11.83;;;8.10;85.30;;;;;;5039838;28;20137;-74
2023/12/11 00:57:25;;;;;;;69.23;11.90;;;8.10;85.30;;;;;;5032509;28;20307;-75
2023/12/11 00:59:51;;;;;;;63.47;12.40;;;8.10;85.30;;;;;;5031286;28;20045;-74
2023/12/11 01:02:17;;;;;;;57.07;12.50;;;8.10;85.20;;;;;;5039510;28;20061;-75
2023/12/11 01:04:43;;;;;;;69.70;12.00;;;8.10;85.00;;;;;;5046004;28;21081;-75
2023/12/11 01:07:09;;;;;;;59.23;11.10;;;8.20;85.10;;;;;;5044239;28;20181;-74
2023/12/11 01:09:35;;;;;;;69.80;12.07;;;8.20;84.80;;;;;;5046117;28;20511;-75
2023/12/11 01:12:00;;;;;;;57.83;11.07;;;8.30;84.70;;;;;;5045348;28;20152;-75
2023/12/11 01:14:26;;;;;;;61.83;11.57;;;8.30;84.70;;;;;;5044800;28;20064;-75
2023/12/11 01:16:52;;;;;;;44.77;10.70;;;8.30;84.60;;;;;;5044649;28;20519;-74
2023/12/11 01:19:18;;;;;;;55.60;12.07;;;8.30;84.60;;;;;;5045998;28;20433;-76
2023/12/11 01:21:45;;;;;;;66.47;12.20;;;8.30;84.60;;;;;;5044334;28;20091;-75
2023/12/11 01:24:11;;;;;;;71.97;11.67;;;8.40;84.60;;;;;;5043590;28;20033;-75
2023/12/11 01:26:38;;;;;;;53.20;10.63;;;8.40;84.70;;;;;;5045598;28;20053;-75
2023/12/11 01:29:03;;;;;;;63.00;10.87;;;8.40;84.70;;;;;;5046085;28;20048;-74
2023/12/11 01:31:29;;;;;;;59.97;10.60;;;8.40;84.70;;;;;;5044690;28;20063;-75
2023/12/11 01:33:55;;;;;;;49.97;10.33;;;8.40;84.80;;;;;;5036911;28;20042;-74
2023/12/11 01:36:21;;;;;;;69.17;11.63;;;8.40;84.80;;;;;;5032072;28;20053;-74
2023/12/11 01:38:47;;;;;;;55.30;9.80;;;8.40;84.80;;;;;;5042765;28;20055;-74
2023/12/11 01:41:13;;;;;;;53.83;11.13;;;8.40;84.80;;;;;;5040415;28;20041;-74
2023/12/11 01:43:38;;;;;;;59.80;11.17;;;8.30;84.80;;;;;;5041250;28;20514;-75
2023/12/11 01:46:13;;;;;;;54.93;11.43;;;8.30;84.80;;;;;;5044802;28;20045;-75
2023/12/11 01:48:39;;;;;;;55.07;11.93;;;8.30;84.70;;;;;;5041065;28;20059;-75
2023/12/11 01:51:08;;;;;;;61.27;11.80;;;8.20;84.80;;;;;;5025190;28;20069;-75
2023/12/11 01:53:34;;;;;;;60.13;10.83;;;8.20;84.90;;;;;;5025720;28;20132;-75
2023/12/11 01:56:00;;;;;;;58.17;10.77;;;8.20;84.90;;;;;;5025010;28;20052;-75
2023/12/11 01:58:29;;;;;;;53.53;11.07;;;8.20;85.20;;;;;;5025716;28;20053;-74
2023/12/11 02:00:55;;;;;;;59.73;11.30;;;8.20;85.30;;;;;;5021702;28;20562;-75
2023/12/11 02:03:22;;;;;;;59.60;11.00;;;8.20;85.50;;;;;;5023512;28;20458;-75
2023/12/11 02:05:51;;;;;;;51.97;10.50;;;8.20;85.50;;;;;;5024204;28;20053;-72
2023/12/11 02:08:17;;;;;;;60.67;10.90;;;8.30;85.30;;;;;;5025969;28;20058;-76
2023/12/11 02:10:44;;;;;;;42.67;9.93;;;8.30;85.40;;;;;;5025492;28;20432;-75
2023/12/11 02:13:10;;;;;;;44.80;8.57;;;8.20;85.20;;;;;;5024393;28;20068;-76
2023/12/11 02:15:46;;;;;;;51.23;9.13;;;8.20;85.10;;;;;;5025516;28;20056;-76
2023/12/11 02:18:16;;;;;;;50.93;9.93;;;8.20;85.50;;;;;;5022941;28;20049;-75
2023/12/11 02:20:43;;;;;;;66.60;10.30;;;8.10;85.70;;;;;;5024760;28;20053;-75
2023/12/11 02:23:11;;;;;;;53.17;10.40;;;8.10;85.90;;;;;;5024987;28;20045;-75
2023/12/11 02:25:38;;;;;;;50.93;9.93;;;8.10;86.10;;;;;;5024718;28;20061;-75
2023/12/11 02:28:04;;;;;;;59.77;9.83;;;8.10;86.10;;;;;;5025167;28;20519;-75
2023/12/11 02:30:37;;;;;;;54.37;10.90;;;8.10;86.10;;;;;;5029085;28;20357;-75
2023/12/11 02:33:03;;;;;;;65.73;11.83;;;8.10;86.10;;;;;;5052886;28;20051;-76
2023/12/11 02:35:29;;;;;;;60.17;11.40;;;8.10;86.10;;;;;;5041285;28;20081;-75
2023/12/11 02:37:55;;;;;;;64.87;10.90;;;8.10;86.20;;;;;;5027276;28;20087;-75
2023/12/11 02:40:20;;;;;;;63.20;13.13;;;8.20;86.20;;;;;;5031193;28;20054;-75
2023/12/11 02:42:49;;;;;;;60.83;11.20;;;8.20;86.00;;;;;;5032758;28;20099;-75
2023/12/11 02:45:15;;;;;;;54.73;10.87;;;8.30;85.90;;;;;;5031445;28;20054;-75
2023/12/11 02:47:41;;;;;;;62.87;12.07;;;8.30;85.90;;;;;;5040730;28;20372;-75
2023/12/11 02:50:07;;;;;;;62.93;11.83;;;8.20;85.90;;;;;;5037324;28;20048;-75
2023/12/11 02:52:32;;;;;;;64.67;12.33;;;8.30;86.00;;;;;;5034384;28;20401;-74
2023/12/11 02:54:58;;;;;;;61.77;11.83;;;8.30;85.90;;;;;;5048411;28;20079;-74
2023/12/11 02:57:24;;;;;;;64.93;12.30;;;8.30;85.90;;;;;;5048171;28;20393;-75
2023/12/11 02:59:49;;;;;;;70.17;13.00;;;8.30;85.80;;;;;;5046937;28;20128;-72
2023/12/11 03:02:15;;;;;;;67.43;13.00;;;8.30;85.70;;;;;;5033390;28;20045;-74
2023/12/11 03:04:41;;;;;;;67.07;12.20;;;8.30;85.70;;;;;;5042416;28;20052;-75
2023/12/11 03:07:07;;;;;;;67.03;12.43;;;8.30;85.70;;;;;;5065730;28;20049;-75
2023/12/11 03:09:32;;;;;;;65.10;12.20;;;8.30;85.80;;;;;;5067875;28;20473;-75
2023/12/11 03:11:58;;;;;;;60.37;12.13;;;8.20;85.90;;;;;;5030552;28;20115;-76
2023/12/11 03:14:24;;;;;;;68.57;13.17;;;8.20;85.90;;;;;;5028213;28;20051;-75
2023/12/11 03:16:49;;;;;;;77.70;13.23;;;8.20;85.80;;;;;;5027247;28;20100;-71
2023/12/11 03:19:18;;;;;;;61.43;11.77;;;8.20;86.00;;;;;;5028120;28;20184;-75
2023/12/11 03:21:43;;;;;;;71.97;12.30;;;8.30;85.80;;;;;;5028089;28;20170;-76
2023/12/11 03:24:09;;;;;;;81.07;12.93;;;8.30;86.00;;;;;;5025836;28;20073;-75
2023/12/11 03:26:35;;;;;;;67.40;11.97;;;8.30;86.00;;;;;;5027830;28;20400;-76
2023/12/11 03:29:00;;;;;;;72.57;13.37;;;8.20;86.10;;;;;;5027510;28;20049;-75
2023/12/11 03:31:26;;;;;;;74.97;12.93;;;8.20;86.20;;;;;;5037425;28;20041;-75
2023/12/11 03:33:52;;;;;;;73.97;12.63;;;8.20;86.20;;;;;;5055169;28;20060;-74
2023/12/11 03:36:17;;;;;;;73.53;13.53;;;8.20;86.20;;;;;;5036762;28;20404;-75
2023/12/11 03:38:43;;;;;;;62.50;13.43;;;8.20;86.10;;;;;;5027412;28;20050;-75
2023/12/11 03:41:09;;;;;;;66.37;13.13;;;8.20;86.10;;;;;;5031212;28;23213;-74
2023/12/11 03:43:34;;;;;;;65.77;13.27;;;8.20;86.00;;;;;;5027704;28;20481;-75
2023/12/11 03:46:03;;;;;;;59.70;13.67;;;8.30;86.00;;;;;;5027076;28;20053;-75
2023/12/11 03:48:29;;;;;;;69.07;13.30;;;8.30;86.00;;;;;;5027340;28;20056;-75
2023/12/11 03:50:55;;;;;;;76.93;13.20;;;8.30;85.90;;;;;;5027267;28;20049;-75
2023/12/11 03:53:21;;;;;;;70.90;13.27;;;8.30;85.80;;;;;;5026481;28;20084;-74
2023/12/11 03:55:47;;;;;;;74.13;14.13;;;8.40;85.80;;;;;;5027473;28;20424;-75
2023/12/11 03:58:13;;;;;;;62.13;12.90;;;8.40;85.70;;;;;;5025859;28;20046;-75
2023/12/11 04:00:39;;;;;;;70.53;14.67;;;8.40;85.70;;;;;;5032478;28;20538;-76
2023/12/11 04:03:05;;;;;;;76.60;15.10;;;8.40;85.70;;;;;;5027662;28;20053;-75
2023/12/11 04:05:30;;;;;;;76.43;13.97;;;8.40;85.50;;;;;;5058429;28;20497;-76
2023/12/11 04:07:56;;;;;;;61.93;14.00;;;8.40;85.40;;;;;;5026719;28;20060;-75
2023/12/11 04:10:22;;;;;;;69.57;13.37;;;8.40;85.30;;;;;;5026397;28;20037;-75
2023/12/11 04:12:47;;;;;;;80.30;13.60;;;8.40;85.30;;;;;;5025784;28;20050;-75
2023/12/11 04:15:13;;;;;;;71.93;12.93;;;8.40;85.30;;;;;;5026550;28;20049;-74
2023/12/11 04:17:42;;;;;;;60.40;13.30;;;8.40;85.30;;;;;;5027832;28;20384;-75
2023/12/11 04:20:08;;;;;;;75.90;14.60;;;8.40;85.40;;;;;;5025888;28;20049;-75
2023/12/11 04:22:34;;;;;;;76.97;19.73;;;8.40;85.50;;;;;;5027071;28;20053;-75
2023/12/11 04:24:59;;;;;;;69.83;12.93;;;8.40;85.50;;;;;;5025624;28;20348;-75
2023/12/11 04:27:25;;;;;;;74.30;13.80;;;8.40;85.40;;;;;;5027104;28;20048;-75
2023/12/11 04:29:51;;;;;;;72.73;13.77;;;8.40;85.40;;;;;;5026623;28;20064;-74
2023/12/11 04:32:17;;;;;;;66.10;16.97;;;8.40;85.30;;;;;;5047389;28;20044;-77
2023/12/11 04:34:43;;;;;;;74.97;14.73;;;8.40;85.10;;;;;;5051147;28;20483;-75
2023/12/11 04:37:09;;;;;;;70.30;13.80;;;8.40;85.10;;;;;;5025555;28;20114;-75
2023/12/11 04:39:34;;;;;;;61.93;13.33;;;8.40;85.00;;;;;;5038769;28;20489;-75
2023/12/11 04:42:00;;;;;;;63.00;14.93;;;8.40;84.80;;;;;;5016043;28;20081;-75
2023/12/11 04:44:26;;;;;;;57.77;12.10;;;8.40;84.70;;;;;;5026291;28;20099;-74
2023/12/11 04:46:51;;;;;;;58.03;12.83;;;8.40;84.80;;;;;;5025474;28;20108;-75
2023/12/11 04:49:17;;;;;;;61.13;12.37;;;8.40;84.80;;;;;;5026837;28;20531;-75
2023/12/11 04:51:43;;;;;;;51.33;11.90;;;8.40;84.80;;;;;;5025983;28;20084;-75
2023/12/11 04:54:08;;;;;;;66.03;12.53;;;8.50;84.70;;;;;;5026189;28;20088;-75
2023/12/11 04:56:34;;;;;;;74.93;13.60;;;8.50;84.70;;;;;;5025751;28;20071;-75
2023/12/11 04:59:00;;;;;;;64.77;13.10;;;8.50;84.90;;;;;;5025298;28;20056;-75
2023/12/11 05:01:26;;;;;;;60.20;12.90;;;8.40;84.80;;;;;;5032387;28;20397;-75
2023/12/11 05:03:52;;;;;;;67.50;12.90;;;8.40;84.90;;;;;;5026299;28;20054;-74
2023/12/11 05:06:18;;;;;;;63.20;12.07;;;8.40;85.00;;;;;;5066355;28;20048;-75
2023/12/11 05:08:44;;;;;;;60.33;13.23;;;8.40;85.00;;;;;;5065877;28;20052;-75
2023/12/11 05:11:10;;;;;;;60.73;14.80;;;8.30;85.10;;;;;;5040829;28;20176;-76
2023/12/11 05:13:35;;;;;;;71.37;12.43;;;8.30;85.00;;;;;;5026679;28;20053;-74
2023/12/11 05:16:01;;;;;;;59.67;11.10;;;8.30;85.00;;;;;;5025262;28;20055;-75
2023/12/11 05:18:27;;;;;;;49.63;11.57;;;8.30;85.10;;;;;;5026306;28;20053;-75
2023/12/11 05:20:53;;;;;;;53.97;12.03;;;8.30;85.10;;;;;;5023343;28;20065;-73
2023/12/11 05:23:18;;;;;;;63.27;15.83;;;8.30;85.20;;;;;;5025850;28;20049;-75
2023/12/11 05:25:44;;;;;;;61.20;14.17;;;8.20;85.00;;;;;;5025013;28;20045;-75
2023/12/11 05:28:10;;;;;;;56.40;15.27;;;8.20;85.00;;;;;;5026042;28;20057;-75
2023/12/11 05:30:36;;;;;;;53.17;11.20;;;8.20;84.80;;;;;;5029610;28;20059;-75
2023/12/11 05:33:02;;;;;;;56.23;10.93;;;8.30;84.80;;;;;;5053348;28;20049;-75
2023/12/11 05:35:28;;;;;;;64.23;11.33;;;8.30;84.70;;;;;;5038068;28;20106;-74
2023/12/11 05:37:55;;;;;;;62.57;11.53;;;8.30;84.80;;;;;;5044900;28;20048;-74
2023/12/11 05:40:21;;;;;;;58.90;11.77;;;8.20;84.70;;;;;;5044509;28;20044;-74
2023/12/11 05:42:47;;;;;;;56.30;12.07;;;8.30;84.60;;;;;;5038984;28;20060;-74
2023/12/11 05:45:12;;;;;;;55.77;11.17;;;8.30;84.60;;;;;;5045163;28;20103;-74
2023/12/11 05:47:38;;;;;;;60.97;12.00;;;8.20;84.60;;;;;;5044626;28;20133;-75
2023/12/11 05:50:04;;;;;;;54.60;11.10;;;8.20;84.70;;;;;;5044265;28;20198;-75
2023/12/11 05:52:30;;;;;;;57.57;10.80;;;8.20;84.70;;;;;;5050614;28;20132;-75
2023/12/11 05:54:56;;;;;;;52.30;10.67;;;8.20;84.90;;;;;;5047521;28;20124;-74
2023/12/11 05:57:21;;;;;;;55.60;10.87;;;8.20;85.00;;;;;;5045740;28;20041;-74
2023/12/11 05:59:47;;;;;;;59.50;13.07;;;8.20;85.00;;;;;;5043917;28;20480;-74
2023/12/11 06:02:13;;;;;;;54.50;11.93;;;8.20;85.10;;;;;;5030311;28;20073;-75
2023/12/11 06:04:38;;;;;;;61.63;10.97;;;8.10;85.20;;;;;;5011097;28;20470;-75
2023/12/11 06:07:04;;;;;;;58.00;11.23;;;8.10;85.30;;;;;;5021182;28;20056;-74
2023/12/11 06:09:31;;;;;;;62.30;10.77;;;8.00;85.50;;;;;;5033728;28;20429;-75
2023/12/11 06:11:57;;;;;;;54.53;10.50;;;8.00;85.50;;;;;;5020379;28;20069;-74
2023/12/11 06:14:23;;;;;;;51.50;10.70;;;8.00;85.50;;;;;;5013300;28;20131;-75
2023/12/11 06:16:49;;;;;;;48.03;11.27;;;8.00;85.60;;;;;;5006444;28;20550;-75
2023/12/11 06:19:14;;;;;;;54.07;12.10;;;8.00;85.50;;;;;;5025648;28;20062;-75
2023/12/11 06:21:40;;;;;;;58.10;10.13;;;8.00;85.60;;;;;;5011637;28;20425;-75
2023/12/11 06:24:07;;;;;;;46.87;10.17;;;8.00;85.50;;;;;;5025642;28;20059;-75
2023/12/11 06:26:34;;;;;;;56.17;16.03;;;8.00;85.40;;;;;;5032945;28;20048;-75
2023/12/11 06:29:00;;;;;;;63.53;11.53;;;8.00;85.20;;;;;;5045542;28;20041;-75
2023/12/11 06:31:27;;;;;;;51.40;10.33;;;8.00;85.30;;;;;;5037498;28;20056;-76
2023/12/11 06:33:53;;;;;;;53.13;11.77;;;8.00;85.30;;;;;;5048335;28;20052;-75
2023/12/11 06:36:21;;;;;;;47.90;16.90;;;8.00;85.40;;;;;;5045756;28;20053;-76
2023/12/11 06:38:50;;;;;;;46.23;11.47;;;8.00;85.50;;;;;;5026412;28;20516;-76
2023/12/11 06:41:17;;;;;;;59.00;15.13;;;8.00;85.50;;;;;;5024004;28;20048;-75
2023/12/11 06:43:46;;;;;;;61.37;17.93;;;8.00;85.60;;;;;;5037208;28;20098;-77
2023/12/11 06:46:12;;;;;;;60.93;10.10;;;8.00;85.80;;;;;;5023898;28;20056;-76
2023/12/11 06:48:38;;;;;;;55.00;10.87;;;8.00;85.90;;;;;;5026785;28;20363;-76
2023/12/11 06:51:03;;;;;;;64.00;10.00;;;8.00;86.00;;;;;;5025472;28;20050;-76
2023/12/11 06:53:30;;;;;;;55.13;10.13;;;7.90;86.30;;;;;;5027136;28;20049;-76
2023/12/11 06:55:55;;;;;;;70.10;10.37;;;7.90;86.40;;;;;;5027667;28;20114;-76
2023/12/11 06:58:21;;;;;;;54.97;11.97;;;7.80;86.60;;;;;;5029286;28;20472;-76
2023/12/11 07:00:47;;;;;;;61.13;11.50;;;7.90;86.70;;;;;;5028299;28;20237;-76
2023/12/11 07:03:13;;;;;;;66.10;11.40;;;7.90;86.70;;;;;;5027276;28;20477;-76
2023/12/11 07:05:42;;;;;;;58.43;10.60;;;7.90;86.90;;;;;;5027349;28;20053;-76
2023/12/11 07:08:08;;;;;;;65.27;10.70;;;7.90;86.90;;;;;;5027932;28;20387;-76
2023/12/11 07:10:34;;;;;;;61.13;10.43;;;7.90;86.80;;;;;;5027761;28;20119;-76
2023/12/11 07:13:00;;;;;;;59.77;11.27;;;7.90;86.90;;;;;;5027934;28;20493;-76
2023/12/11 07:15:25;;;;;;;64.03;9.90;;;7.90;86.90;;;;;;5026965;28;20167;-77
2023/12/11 07:17:51;;;;;;;68.53;10.27;;;8.00;86.80;;;;;;5027802;28;20116;-75
2023/12/11 07:20:17;;;;;;;57.97;10.40;;;8.00;86.80;;;;;;5026538;28;20512;-76
2023/12/11 07:22:44;;;;;;;66.67;10.93;;;8.00;86.90;;;;;;5028201;28;20124;-76
2023/12/11 07:25:12;;;;;;;55.07;9.67;;;8.00;86.90;;;;;;5027194;28;25628;-76
2023/12/11 07:27:41;;;;;;;53.67;9.13;;;8.00;87.00;;;;;;5011906;28;20085;-76
2023/12/11 07:30:07;;;;;;;50.80;10.20;;;8.00;86.90;;;;;;5019709;28;20265;-75
2023/12/11 07:32:32;;;;;;;47.03;8.63;;;7.90;86.90;;;;;;5052241;28;20561;-76
2023/12/11 07:35:00;;;;;;;48.60;8.53;;;7.90;87.10;;;;;;5049785;28;20053;-76
2023/12/11 07:37:25;;;;;;;39.83;6.83;;;7.90;87.00;;;;;;5057206;28;20421;-76
2023/12/11 07:39:51;;;;;;;50.27;8.53;;;7.90;87.00;;;;;;5061105;28;20045;-75
2023/12/11 07:42:17;;;;;;;45.27;8.83;;;7.90;87.20;;;;;;5042557;28;20053;-76
2023/12/11 07:44:43;;;;;;;46.57;9.33;;;7.90;87.20;;;;;;5027555;28;20084;-76
2023/12/11 07:47:08;;;;;;;39.33;12.77;;;8.00;87.20;;;;;;5028248;28;20060;-76
2023/12/11 07:49:34;;;;;;;41.67;8.13;;;8.00;87.20;;;;;;5047736;28;20156;-76
2023/12/11 07:52:02;;;;;;;34.00;7.13;;;8.00;87.20;;;;;;5049149;28;20048;-76
2023/12/11 07:54:27;;;;;;;42.90;7.33;;;8.00;87.20;;;;;;5050776;28;20052;-75
2023/12/11 07:56:53;;;;;;;39.60;7.33;;;8.00;87.20;;;;;;5051082;28;20502;-76
2023/12/11 07:59:19;;;;;;;43.37;7.60;;;8.00;87.20;;;;;;5049452;28;20049;-76
2023/12/11 08:01:45;;;;;;;47.43;8.20;;;8.00;87.20;;;;;;5046626;28;20059;-76
2023/12/11 08:04:12;;;;;;;43.50;7.63;;;8.00;87.20;;;;;;5037894;28;20053;-76
2023/12/11 08:06:41;;;;;;;39.07;7.00;;;8.00;87.30;;;;;;5041947;28;20056;-76
2023/12/11 08:09:08;;;;;;;40.37;7.33;;;8.00;87.20;;;;;;5007721;28;20049;-75
2023/12/11 08:11:34;;;;;;;40.03;7.23;;;8.00;87.30;;;;;;5005184;28;20060;-75
2023/12/11 08:14:00;;;;;;;41.27;7.40;;;8.00;87.30;;;;;;5007106;28;20944;-75
2023/12/11 08:16:26;;;;;;;41.03;7.03;;;8.00;87.40;;;;;;5007359;28;20172;-75
2023/12/11 08:18:52;;;;;;;37.00;7.40;;;8.00;87.30;;;;;;5008333;28;20049;-74
2023/12/11 08:21:17;;;;;;;34.53;6.20;;;8.00;87.40;;;;;;5006872;28;20497;-75
2023/12/11 08:23:44;;;;;;;38.13;7.10;;;8.00;87.40;;;;;;5007941;28;20080;-75
2023/12/11 08:26:11;;;;;;;30.47;6.30;;;8.00;87.40;;;;;;5008795;28;20042;-75
2023/12/11 08:28:37;;;;;;;33.53;6.47;;;8.00;87.40;;;;;;5011651;28;20139;-75
2023/12/11 08:31:03;;;;;;;27.47;6.40;;;8.00;87.50;;;;;;5005957;28;20753;-74
2023/12/11 08:33:29;;;;;;;32.33;7.60;;;8.00;87.50;;;;;;5007971;28;20509;-75
2023/12/11 08:35:55;;;;;;;31.07;7.00;;;8.00;87.60;;;;;;5009718;28;20057;-74
2023/12/11 08:38:23;;;;;;;31.97;8.00;;;8.00;87.60;;;;;;5010894;28;20084;-75
2023/12/11 08:40:49;;;;;;;33.57;6.83;;;8.00;87.70;;;;;;5010749;28;20083;-75
2023/12/11 08:43:18;;;;;;;29.77;7.00;;;8.00;87.80;;;;;;5007179;28;20184;-75
2023/12/11 08:45:44;;;;;;;32.17;8.60;;;8.00;87.80;;;;;;5009120;28;20053;-75
2023/12/11 08:48:10;;;;;;;37.73;8.33;;;8.00;87.90;;;;;;5010467;28;20130;-75
2023/12/11 08:50:36;;;;;;;34.17;8.30;;;8.00;88.00;;;;;;5010652;28;20486;-75
2023/12/11 08:53:03;;;;;;;40.33;8.67;;;8.00;88.00;;;;;;5007486;28;20049;-74
2023/12/11 08:55:29;;;;;;;35.00;8.23;;;8.00;88.20;;;;;;5007817;28;20603;-74
2023/12/11 08:57:55;;;;;;;40.10;16.07;;;8.00;88.10;;;;;;5008997;28;20515;-74
2023/12/11 09:00:21;;;;;;;33.63;9.67;;;8.00;88.20;;;;;;5009600;28;20053;-75
2023/12/11 09:02:47;;;;;;;36.53;8.13;;;8.00;88.20;;;;;;5008265;28;20333;-75
2023/12/11 09:05:14;;;;;;;38.27;8.97;;;8.00;88.30;;;;;;5010001;28;20072;-75
2023/12/11 09:07:40;;;;;;;40.97;10.67;;;8.00;88.40;;;;;;5009588;28;20041;-75
2023/12/11 09:10:08;;;;;;;49.13;11.27;;;8.00;88.40;;;;;;5009669;28;20092;-74
2023/12/11 09:12:35;;;;;;;45.87;11.57;;;8.00;88.40;;;;;;5011223;28;20054;-75
2023/12/11 09:15:02;;;;;;;57.23;11.20;;;8.00;88.40;;;;;;5010346;28;20112;-74
2023/12/11 09:17:28;;;;;;;43.03;10.60;;;8.00;88.40;;;;;;5014299;28;20049;-75
2023/12/11 09:19:54;;;;;;;47.77;11.20;;;8.00;88.50;;;;;;5013235;28;20081;-74
2023/12/11 09:22:20;;;;;;;42.67;10.97;;;8.00;88.50;;;;;;5009649;28;20863;-75
2023/12/11 09:24:46;;;;;;;45.27;10.47;;;8.00;88.50;;;;;;5010754;28;20067;-75
2023/12/11 09:27:12;;;;;;;39.97;9.53;;;8.00;88.50;;;;;;5008551;28;20112;-75
2023/12/11 09:29:38;;;;;;;37.47;10.40;;;8.00;88.50;;;;;;5006869;28;20122;-75
2023/12/11 09:32:04;;;;;;;39.77;9.20;;;8.00;88.50;;;;;;5008001;28;20195;-75
2023/12/11 09:34:29;;;;;;;39.27;9.07;;;8.10;88.50;;;;;;5008850;28;20050;-74
2023/12/11 09:36:55;;;;;;;35.53;9.13;;;8.10;88.60;;;;;;5024333;28;20067;-75
2023/12/11 09:39:22;;;;;;;46.53;10.50;;;8.10;88.70;;;;;;5030407;28;20114;-75
2023/12/11 09:41:48;;;;;;;47.57;10.20;;;8.10;88.70;;;;;;5028216;28;20467;-75
2023/12/11 09:44:16;;;;;;;50.73;10.23;;;8.20;88.70;;;;;;5018322;28;20103;-75
2023/12/11 09:46:54;;;;;;;42.67;12.93;;;8.20;88.70;;;;;;5009256;28;20703;-74
2023/12/11 09:49:20;;;;;;;49.23;9.43;;;8.20;88.70;;;;;;5010440;28;20049;-75
2023/12/11 09:51:46;;;;;;;47.97;9.00;;;8.20;88.80;;;;;;5010287;28;20053;-75
2023/12/11 09:54:12;;;;;;;49.07;9.90;;;8.20;88.90;;;;;;5021884;28;20685;-75
2023/12/11 09:56:39;;;;;;;30.03;7.80;;;8.20;88.90;;;;;;5036935;28;20049;-76
2023/12/11 09:59:09;;;;;;;46.60;8.47;;;8.20;88.90;;;;;;5010423;28;20136;-75
2023/12/11 10:01:34;;;;;;;49.37;8.57;;;8.30;88.90;;;;;;5007488;28;20682;-75
2023/12/11 10:04:00;;;;;;;41.10;8.27;;;8.30;88.90;;;;;;5009553;28;20050;-75
2023/12/11 10:06:26;;;;;;;45.03;7.37;;;8.30;88.90;;;;;;5010307;28;20123;-75
2023/12/11 10:08:53;;;;;;;46.47;12.20;;;8.30;88.70;;;;;;5010192;28;20049;-77
2023/12/11 10:11:22;;;;;;;35.53;6.37;;;8.30;88.70;;;;;;5008032;28;20058;-75
2023/12/11 10:13:48;;;;;;;40.03;5.83;;;8.30;88.70;;;;;;5007414;28;20521;-75
2023/12/11 10:16:32;;;;;;;36.33;5.33;;;8.30;88.60;;;;;;5008586;28;20516;-75
2023/12/11 10:18:59;;;;;;;36.10;5.43;;;8.30;88.60;;;;;;5008225;28;20386;-75
2023/12/11 10:21:25;;;;;;;33.90;6.07;;;8.20;88.60;;;;;;5009207;28;20132;-75
2023/12/11 10:24:05;;;;;;;37.13;6.00;;;8.20;88.60;;;;;;5008279;28;20061;-75
2023/12/11 10:26:37;;;;;;;33.00;6.20;;;8.20;88.60;;;;;;5029437;28;20053;-75
2023/12/11 10:29:23;;;;;;;35.50;6.63;;;8.20;88.70;;;;;;5030071;28;20159;-75
2023/12/11 10:32:00;;;;;;;31.60;6.43;;;8.30;88.80;;;;;;5019461;28;20108;-75
2023/12/11 10:34:50;;;;;;;42.93;7.27;;;8.30;88.90;;;;;;5013230;28;20080;-75
2023/12/11 10:37:19;;;;;;;41.57;6.53;;;8.40;88.90;;;;;;5013472;28;20050;-74
2023/12/11 10:39:52;;;;;;;35.87;7.10;;;8.50;88.90;;;;;;5008926;28;20056;-75
2023/12/11 10:42:18;;;;;;;41.00;7.33;;;8.50;88.70;;;;;;5007463;28;20049;-75
2023/12/11 10:44:44;;;;;;;42.07;6.60;;;8.60;88.60;;;;;;5009370;28;20092;-75
2023/12/11 10:47:10;;;;;;;34.67;7.43;;;8.60;88.60;;;;;;5008238;28;20481;-75
2023/12/11 10:49:37;;;;;;;56.67;12.53;;;8.60;88.50;;;;;;5009245;28;20055;-75
2023/12/11 10:52:03;;;;;;;39.20;7.60;;;8.60;88.40;;;;;;5006573;28;20192;-75
2023/12/11 10:54:29;;;;;;;38.87;8.23;;;8.60;88.10;;;;;;5008908;28;20080;-75
2023/12/11 10:56:59;;;;;;;44.97;8.07;;;8.60;88.10;;;;;;5008634;28;20132;-75
2023/12/11 10:59:26;;;;;;;41.43;6.93;;;8.60;88.20;;;;;;5007796;28;20353;-75
2023/12/11 11:01:54;;;;;;;36.43;7.50;;;8.60;87.90;;;;;;5009279;28;20053;-75
2023/12/11 11:04:20;;;;;;;43.70;8.73;;;8.60;87.80;;;;;;5008305;28;20111;-75
2023/12/11 11:06:58;;;;;;;43.20;9.23;;;8.60;87.60;;;;;;5007108;28;20057;-76
2023/12/11 11:09:52;;;;;;;39.13;6.53;;;8.60;87.30;;;;;;5009843;28;20512;-76
2023/12/11 11:12:37;;;;;;;35.03;6.17;;;8.50;87.50;;;;;;5007245;28;20063;-75
2023/12/11 11:15:05;;;;;;;39.37;6.37;;;8.50;87.40;;;;;;5008856;28;20132;-76
2023/12/11 11:18:07;;;;;;;35.60;5.67;;;8.50;87.40;;;;;;5006794;28;20065;-76
2023/12/11 11:20:37;;;;;;;26.97;5.27;;;8.50;87.50;;;;;;4983638;28;20564;-75
2023/12/11 11:23:18;;;;;;;26.10;4.77;;;8.60;87.20;;;;;;5003582;28;20060;-75
2023/12/11 11:25:53;;;;;;;26.85;5.50;;;8.50;87.00;;;;;;5016098;28;20049;-76
2023/12/11 11:28:37;;;;;;;23.10;4.00;;;8.50;86.50;;;;;;5007571;28;20053;-75
2023/12/11 11:31:04;;;;;;;20.03;4.13;;;8.60;86.00;;;;;;5007271;28;20123;-75
2023/12/11 11:33:50;;;;;;;16.33;3.70;;;8.60;86.00;;;;;;5005202;28;20539;-75
2023/12/11 11:36:21;;;;;;;23.50;3.87;;;8.60;85.30;;;;;;5008382;28;20376;-75
2023/12/11 11:38:57;;;;;;;14.35;3.20;;;8.50;85.00;;;;;;5016664;28;20062;-76
2023/12/11 11:41:23;;;;;;;24.47;3.87;;;8.40;84.50;;;;;;5006412;28;20057;-74
2023/12/11 11:44:06;;;;;;;12.97;3.07;;;8.40;84.80;;;;;;5008628;28;20049;-75
2023/12/11 11:47:07;;;;;;;16.10;8.00;;;8.30;85.00;;;;;;5008805;28;20080;-77
2023/12/11 11:49:35;;;;;;;21.55;2.92;;;8.30;84.60;;;;;;4964276;28;20066;-75
2023/12/11 11:52:07;;;;;;;18.23;3.30;;;8.20;84.90;;;;;;5016208;28;20109;-75
2023/12/11 11:54:36;;;;;;;19.03;2.93;;;8.30;85.10;;;;;;5026835;28;20513;-75
2023/12/11 11:57:02;;;;;;;15.50;3.47;;;8.30;85.00;;;;;;5031554;28;20066;-76
2023/12/11 11:59:28;;;;;;;15.27;1.90;;;8.30;84.80;;;;;;5029909;28;20507;-75
2023/12/11 12:01:55;;;;;;;10.63;2.13;;;8.20;84.80;;;;;;5035633;28;20067;-75
2023/12/11 12:04:25;;;;;;;11.23;2.13;;;8.20;84.60;;;;;;5011455;28;20056;-75
2023/12/11 12:06:51;;;;;;;9.60;2.50;;;8.20;84.60;;;;;;5027365;28;20064;-75
2023/12/11 12:09:20;;;;;;;16.73;3.40;;;8.30;85.00;;;;;;5011257;28;20048;-76
2023/12/11 12:11:46;;;;;;;18.73;3.00;;;8.30;84.90;;;;;;5027460;28;20087;-76
2023/12/11 12:14:13;;;;;;;15.27;3.13;;;8.30;84.90;;;;;;5031399;28;20152;-75
2023/12/11 12:16:40;;;;;;;24.07;4.43;;;8.30;85.10;;;;;;5024676;28;20504;-75
2023/12/11 12:19:06;;;;;;;25.07;5.13;;;8.30;85.10;;;;;;5018065;28;20068;-77
2023/12/11 12:21:45;;;;;;;36.17;5.67;;;8.30;85.20;;;;;;5010154;28;20069;-75
2023/12/11 12:24:10;;;;;;;31.53;5.50;;;8.30;85.10;;;;;;5008780;28;20053;-75
2023/12/11 12:26:36;;;;;;;26.80;5.23;;;8.30;85.10;;;;;;5004843;28;20060;-75
2023/12/11 12:29:03;;;;;;;20.07;4.93;;;8.30;85.00;;;;;;5006868;28;20096;-75
2023/12/11 12:31:30;;;;;;;30.40;10.87;;;8.20;85.00;;;;;;5005258;28;20061;-75
2023/12/11 12:33:57;;;;;;;30.77;5.60;;;8.20;84.80;;;;;;5006691;28;20463;-76
2023/12/11 12:36:23;;;;;;;31.50;5.27;;;8.10;84.80;;;;;;5020796;28;20061;-76
2023/12/11 12:38:49;;;;;;;31.83;5.73;;;8.10;85.00;;;;;;5026979;28;20099;-76
2023/12/11 12:41:15;;;;;;;27.07;5.23;;;8.00;85.10;;;;;;5006710;28;20072;-77